sensor_id;sensor_type;location;lat;lon;timestamp;temperature;humidity
20141;DHT22;10231;47.702;9.826;2023-07-13T00:01:58;18.20;99.90
20141;DHT22;10231;47.702;9.826;2023-07-13T00:04:25;18.20;99.90
20141;DHT22;10231;47.702;9.826;2023-07-13T00:06:51;18.10;99.90
20141;DHT22;10231;47.702;9.826;2023-07-13T00:09:18;18.20;99.90
20141;DHT22;10231;47.702;9.826;2023-07-13T00:11:45;18.20;99.90
20141;DHT22;10231;47.702;9.826;2023-07-13T00:14:13;18.20;99.90
20141;DHT22;10231;47.702;9.826;2023-07-13T00:16:41;18.20;99.90
20141;DHT22;10231;47.702;9.826;2023-07-13T00:19:09;18.30;99.90
20141;DHT22;10231;47.702;9.826;2023-07-13T00:21:35;18.30;99.90
20141;DHT22;10231;47.702;9.826;2023-07-13T00:24:01;18.30;99.90
20141;DHT22;10231;47.702;9.826;2023-07-13T00:26:27;18.30;99.90
20141;DHT22;10231;47.702;9.826;2023-07-13T00:28:52;18.40;99.90
20141;DHT22;10231;47.702;9.826;2023-07-13T00:31:18;18.30;99.90
20141;DHT22;10231;47.702;9.826;2023-07-13T00:33:44;18.30;99.90
20141;DHT22;10231;47.702;9.826;2023-07-13T00:36:10;18.30;99.90
20141;DHT22;10231;47.702;9.826;2023-07-13T00:38:36;18.30;99.90
20141;DHT22;10231;47.702;9.826;2023-07-13T00:41:03;18.30;99.90
20141;DHT22;10231;47.702;9.826;2023-07-13T00:43:29;18.30;99.90
20141;DHT22;10231;47.702;9.826;2023-07-13T00:48:34;18.10;99.90
20141;DHT22;10231;47.702;9.826;2023-07-13T00:51:02;18.10;99.90
20141;DHT22;10231;47.702;9.826;2023-07-13T00:53:29;18.10;99.90
20141;DHT22;10231;47.702;9.826;2023-07-13T00:55:58;18.10;99.90
20141;DHT22;10231;47.702;9.826;2023-07-13T00:58:25;18.10;99.90
20141;DHT22;10231;47.702;9.826;2023-07-13T01:00:51;18.10;99.90
20141;DHT22;10231;47.702;9.826;2023-07-13T01:03:18;18.10;99.90
20141;DHT22;10231;47.702;9.826;2023-07-13T01:05:44;18.10;99.90
20141;DHT22;10231;47.702;9.826;2023-07-13T01:08:12;18.10;99.90
20141;DHT22;10231;47.702;9.826;2023-07-13T01:10:37;18.20;99.90
20141;DHT22;10231;47.702;9.826;2023-07-13T01:13:08;18.20;99.90
20141;DHT22;10231;47.702;9.826;2023-07-13T01:15:35;18.10;99.90
20141;DHT22;10231;47.702;9.826;2023-07-13T01:18:03;18.10;99.90
20141;DHT22;10231;47.702;9.826;2023-07-13T01:20:29;18.00;99.90
20141;DHT22;10231;47.702;9.826;2023-07-13T01:22:54;18.10;99.90
20141;DHT22;10231;47.702;9.826;2023-07-13T01:25:20;18.10;99.90
20141;DHT22;10231;47.702;9.826;2023-07-13T01:27:46;18.10;99.90
20141;DHT22;10231;47.702;9.826;2023-07-13T01:30:12;18.10;99.90
20141;DHT22;10231;47.702;9.826;2023-07-13T01:32:38;18.10;99.90
20141;DHT22;10231;47.702;9.826;2023-07-13T01:35:07;18.10;99.90
20141;DHT22;10231;47.702;9.826;2023-07-13T01:37:33;18.10;99.90
20141;DHT22;10231;47.702;9.826;2023-07-13T01:40:02;18.10;99.90
20141;DHT22;10231;47.702;9.826;2023-07-13T01:42:28;18.10;99.90
20141;DHT22;10231;47.702;9.826;2023-07-13T01:44:54;18.10;99.90
20141;DHT22;10231;47.702;9.826;2023-07-13T01:47:20;18.10;99.90
20141;DHT22;10231;47.702;9.826;2023-07-13T01:49:45;18.00;99.90
20141;DHT22;10231;47.702;9.826;2023-07-13T01:52:12;17.90;99.90
20141;DHT22;10231;47.702;9.826;2023-07-13T01:54:38;18.00;99.90
20141;DHT22;10231;47.702;9.826;2023-07-13T01:57:03;18.00;99.90
20141;DHT22;10231;47.702;9.826;2023-07-13T01:59:29;18.00;99.90
20141;DHT22;10231;47.702;9.826;2023-07-13T02:01:55;18.00;99.90
20141;DHT22;10231;47.702;9.826;2023-07-13T02:04:20;18.00;99.90
20141;DHT22;10231;47.702;9.826;2023-07-13T02:06:46;17.90;99.90
20141;DHT22;10231;47.702;9.826;2023-07-13T02:09:11;17.90;99.90
20141;DHT22;10231;47.702;9.826;2023-07-13T02:11:37;18.00;99.90
20141;DHT22;10231;47.702;9.826;2023-07-13T02:14:03;17.90;99.90
20141;DHT22;10231;47.702;9.826;2023-07-13T02:16:29;17.90;99.90
20141;DHT22;10231;47.702;9.826;2023-07-13T02:18:55;17.90;99.90
20141;DHT22;10231;47.702;9.826;2023-07-13T02:21:21;17.80;99.90
20141;DHT22;10231;47.702;9.826;2023-07-13T02:23:47;17.80;99.90
20141;DHT22;10231;47.702;9.826;2023-07-13T02:26:13;17.80;99.90
20141;DHT22;10231;47.702;9.826;2023-07-13T02:28:39;17.90;99.90
20141;DHT22;10231;47.702;9.826;2023-07-13T02:31:13;17.90;99.90
20141;DHT22;10231;47.702;9.826;2023-07-13T02:33:39;17.90;99.90
20141;DHT22;10231;47.702;9.826;2023-07-13T02:36:05;17.90;99.90
20141;DHT22;10231;47.702;9.826;2023-07-13T02:38:32;17.90;99.90
20141;DHT22;10231;47.702;9.826;2023-07-13T02:41:02;17.90;99.90
20141;DHT22;10231;47.702;9.826;2023-07-13T02:43:27;17.90;99.90
20141;DHT22;10231;47.702;9.826;2023-07-13T02:45:53;17.90;99.90
20141;DHT22;10231;47.702;9.826;2023-07-13T02:48:19;17.90;99.90
20141;DHT22;10231;47.702;9.826;2023-07-13T02:50:44;17.90;99.90
20141;DHT22;10231;47.702;9.826;2023-07-13T02:53:10;17.80;99.90
20141;DHT22;10231;47.702;9.826;2023-07-13T02:55:36;17.80;99.90
20141;DHT22;10231;47.702;9.826;2023-07-13T02:58:02;17.80;99.90
20141;DHT22;10231;47.702;9.826;2023-07-13T03:00:27;17.80;99.90
20141;DHT22;10231;47.702;9.826;2023-07-13T03:02:54;17.80;99.90
20141;DHT22;10231;47.702;9.826;2023-07-13T03:05:23;17.80;99.90
20141;DHT22;10231;47.702;9.826;2023-07-13T03:07:49;17.80;99.90
20141;DHT22;10231;47.702;9.826;2023-07-13T03:10:14;17.80;99.90
20141;DHT22;10231;47.702;9.826;2023-07-13T03:12:41;17.80;99.90
20141;DHT22;10231;47.702;9.826;2023-07-13T03:15:07;17.80;99.90
20141;DHT22;10231;47.702;9.826;2023-07-13T03:17:32;17.80;99.90
20141;DHT22;10231;47.702;9.826;2023-07-13T03:19:58;17.80;99.90
20141;DHT22;10231;47.702;9.826;2023-07-13T03:22:24;17.80;99.90
20141;DHT22;10231;47.702;9.826;2023-07-13T03:24:49;17.80;99.90
20141;DHT22;10231;47.702;9.826;2023-07-13T03:27:16;17.80;99.90
20141;DHT22;10231;47.702;9.826;2023-07-13T03:29:42;17.80;99.90
20141;DHT22;10231;47.702;9.826;2023-07-13T03:32:07;17.80;99.90
20141;DHT22;10231;47.702;9.826;2023-07-13T03:34:33;17.90;99.90
20141;DHT22;10231;47.702;9.826;2023-07-13T03:36:59;17.90;99.90
20141;DHT22;10231;47.702;9.826;2023-07-13T03:39:24;17.90;99.90
20141;DHT22;10231;47.702;9.826;2023-07-13T03:41:50;17.90;99.90
20141;DHT22;10231;47.702;9.826;2023-07-13T03:44:16;17.80;99.90
20141;DHT22;10231;47.702;9.826;2023-07-13T03:46:43;17.90;99.90
20141;DHT22;10231;47.702;9.826;2023-07-13T03:49:09;17.90;99.90
20141;DHT22;10231;47.702;9.826;2023-07-13T03:51:35;17.90;99.90
20141;DHT22;10231;47.702;9.826;2023-07-13T03:54:01;17.90;99.90
20141;DHT22;10231;47.702;9.826;2023-07-13T03:56:28;17.90;99.90
20141;DHT22;10231;47.702;9.826;2023-07-13T03:58:54;17.90;99.90
20141;DHT22;10231;47.702;9.826;2023-07-13T04:01:21;17.80;99.90
20141;DHT22;10231;47.702;9.826;2023-07-13T04:03:47;17.80;99.90
20141;DHT22;10231;47.702;9.826;2023-07-13T04:06:18;17.80;99.90
20141;DHT22;10231;47.702;9.826;2023-07-13T04:08:47;17.80;99.90
20141;DHT22;10231;47.702;9.826;2023-07-13T04:11:14;17.80;99.90
20141;DHT22;10231;47.702;9.826;2023-07-13T04:13:40;17.80;99.90
20141;DHT22;10231;47.702;9.826;2023-07-13T04:16:05;17.90;99.90
20141;DHT22;10231;47.702;9.826;2023-07-13T04:18:31;17.90;99.90
20141;DHT22;10231;47.702;9.826;2023-07-13T04:20:56;17.90;99.90
20141;DHT22;10231;47.702;9.826;2023-07-13T04:23:22;17.90;99.90
20141;DHT22;10231;47.702;9.826;2023-07-13T04:25:49;17.90;99.90
20141;DHT22;10231;47.702;9.826;2023-07-13T04:28:16;17.90;99.90
20141;DHT22;10231;47.702;9.826;2023-07-13T04:30:43;17.90;99.90
20141;DHT22;10231;47.702;9.826;2023-07-13T04:33:08;17.90;99.90
20141;DHT22;10231;47.702;9.826;2023-07-13T04:35:34;17.90;99.90
20141;DHT22;10231;47.702;9.826;2023-07-13T04:38:00;17.90;99.90
20141;DHT22;10231;47.702;9.826;2023-07-13T04:40:27;17.90;99.90
20141;DHT22;10231;47.702;9.826;2023-07-13T04:42:53;17.90;99.90
20141;DHT22;10231;47.702;9.826;2023-07-13T04:45:18;17.90;99.90
20141;DHT22;10231;47.702;9.826;2023-07-13T04:47:44;17.90;99.90
20141;DHT22;10231;47.702;9.826;2023-07-13T04:50:12;17.90;99.90
20141;DHT22;10231;47.702;9.826;2023-07-13T04:52:41;17.90;99.90
20141;DHT22;10231;47.702;9.826;2023-07-13T04:55:08;17.90;99.90
20141;DHT22;10231;47.702;9.826;2023-07-13T04:57:33;17.90;99.90
20141;DHT22;10231;47.702;9.826;2023-07-13T04:59:59;17.90;99.90
20141;DHT22;10231;47.702;9.826;2023-07-13T05:02:27;17.90;99.90
20141;DHT22;10231;47.702;9.826;2023-07-13T05:04:53;18.00;99.90
20141;DHT22;10231;47.702;9.826;2023-07-13T05:07:19;17.90;99.90
20141;DHT22;10231;47.702;9.826;2023-07-13T05:09:44;17.90;99.90
20141;DHT22;10231;47.702;9.826;2023-07-13T05:12:10;17.90;99.90
20141;DHT22;10231;47.702;9.826;2023-07-13T05:14:36;18.00;99.90
20141;DHT22;10231;47.702;9.826;2023-07-13T05:17:01;17.90;99.90
20141;DHT22;10231;47.702;9.826;2023-07-13T05:19:27;17.90;99.90
20141;DHT22;10231;47.702;9.826;2023-07-13T05:21:53;18.00;99.90
20141;DHT22;10231;47.702;9.826;2023-07-13T05:24:18;17.90;99.90
20141;DHT22;10231;47.702;9.826;2023-07-13T05:26:44;18.00;99.90
20141;DHT22;10231;47.702;9.826;2023-07-13T05:29:10;18.00;99.90
20141;DHT22;10231;47.702;9.826;2023-07-13T05:31:36;18.10;99.90
20141;DHT22;10231;47.702;9.826;2023-07-13T05:34:01;18.10;99.90
20141;DHT22;10231;47.702;9.826;2023-07-13T05:36:27;18.00;99.90
20141;DHT22;10231;47.702;9.826;2023-07-13T05:38:52;18.00;99.90
20141;DHT22;10231;47.702;9.826;2023-07-13T05:41:18;18.00;99.90
20141;DHT22;10231;47.702;9.826;2023-07-13T05:43:43;18.00;99.90
20141;DHT22;10231;47.702;9.826;2023-07-13T05:46:09;17.90;99.90
20141;DHT22;10231;47.702;9.826;2023-07-13T05:48:34;18.00;99.90
20141;DHT22;10231;47.702;9.826;2023-07-13T05:51:01;17.90;99.90
20141;DHT22;10231;47.702;9.826;2023-07-13T05:53:27;17.90;99.90
20141;DHT22;10231;47.702;9.826;2023-07-13T05:55:54;17.90;99.90
20141;DHT22;10231;47.702;9.826;2023-07-13T05:58:20;18.00;99.90
20141;DHT22;10231;47.702;9.826;2023-07-13T06:00:47;18.00;99.90
20141;DHT22;10231;47.702;9.826;2023-07-13T06:03:13;18.10;99.90
20141;DHT22;10231;47.702;9.826;2023-07-13T06:05:39;18.00;99.90
20141;DHT22;10231;47.702;9.826;2023-07-13T06:08:05;18.00;99.90
20141;DHT22;10231;47.702;9.826;2023-07-13T06:10:35;18.00;99.90
20141;DHT22;10231;47.702;9.826;2023-07-13T06:13:00;18.00;99.90
20141;DHT22;10231;47.702;9.826;2023-07-13T06:15:26;18.00;99.90
20141;DHT22;10231;47.702;9.826;2023-07-13T06:17:52;18.00;99.90
20141;DHT22;10231;47.702;9.826;2023-07-13T06:20:17;18.10;99.90
20141;DHT22;10231;47.702;9.826;2023-07-13T06:22:43;18.10;99.90
20141;DHT22;10231;47.702;9.826;2023-07-13T06:25:08;18.00;99.90
20141;DHT22;10231;47.702;9.826;2023-07-13T06:27:34;18.00;99.90
20141;DHT22;10231;47.702;9.826;2023-07-13T06:29:59;18.00;99.90
20141;DHT22;10231;47.702;9.826;2023-07-13T06:32:25;18.00;99.90
20141;DHT22;10231;47.702;9.826;2023-07-13T06:34:51;18.00;99.90
20141;DHT22;10231;47.702;9.826;2023-07-13T06:37:17;18.00;99.90
20141;DHT22;10231;47.702;9.826;2023-07-13T06:39:43;18.00;99.90
20141;DHT22;10231;47.702;9.826;2023-07-13T06:42:09;18.00;99.90
20141;DHT22;10231;47.702;9.826;2023-07-13T06:44:34;18.00;99.90
20141;DHT22;10231;47.702;9.826;2023-07-13T06:47:00;18.00;99.90
20141;DHT22;10231;47.702;9.826;2023-07-13T06:49:25;18.00;99.90
20141;DHT22;10231;47.702;9.826;2023-07-13T06:51:51;18.00;99.90
20141;DHT22;10231;47.702;9.826;2023-07-13T06:54:17;18.10;99.90
20141;DHT22;10231;47.702;9.826;2023-07-13T06:56:42;18.00;99.90
20141;DHT22;10231;47.702;9.826;2023-07-13T06:59:08;18.00;99.90
20141;DHT22;10231;47.702;9.826;2023-07-13T07:01:34;18.10;99.90
20141;DHT22;10231;47.702;9.826;2023-07-13T07:03:59;18.10;99.90
20141;DHT22;10231;47.702;9.826;2023-07-13T07:06:25;18.10;99.90
20141;DHT22;10231;47.702;9.826;2023-07-13T07:08:51;18.10;99.90
20141;DHT22;10231;47.702;9.826;2023-07-13T07:11:24;18.10;99.90
20141;DHT22;10231;47.702;9.826;2023-07-13T07:13:51;18.10;99.90
20141;DHT22;10231;47.702;9.826;2023-07-13T07:16:17;18.20;99.90
20141;DHT22;10231;47.702;9.826;2023-07-13T07:18:43;18.10;99.90
20141;DHT22;10231;47.702;9.826;2023-07-13T07:21:09;18.20;99.90
20141;DHT22;10231;47.702;9.826;2023-07-13T07:23:35;18.20;99.90
20141;DHT22;10231;47.702;9.826;2023-07-13T07:26:01;18.20;99.90
20141;DHT22;10231;47.702;9.826;2023-07-13T07:28:26;18.20;99.90
20141;DHT22;10231;47.702;9.826;2023-07-13T07:30:54;18.20;99.90
20141;DHT22;10231;47.702;9.826;2023-07-13T07:33:20;18.20;99.90
20141;DHT22;10231;47.702;9.826;2023-07-13T07:35:46;18.30;99.90
20141;DHT22;10231;47.702;9.826;2023-07-13T07:38:11;18.30;99.90
20141;DHT22;10231;47.702;9.826;2023-07-13T07:40:38;18.30;99.90
20141;DHT22;10231;47.702;9.826;2023-07-13T07:43:06;18.30;99.90
20141;DHT22;10231;47.702;9.826;2023-07-13T07:45:31;18.40;99.90
20141;DHT22;10231;47.702;9.826;2023-07-13T07:47:57;18.30;99.90
20141;DHT22;10231;47.702;9.826;2023-07-13T07:50:25;18.40;99.90
20141;DHT22;10231;47.702;9.826;2023-07-13T07:52:50;18.40;99.90
20141;DHT22;10231;47.702;9.826;2023-07-13T07:55:16;18.40;99.90
20141;DHT22;10231;47.702;9.826;2023-07-13T07:57:42;18.40;99.90
20141;DHT22;10231;47.702;9.826;2023-07-13T08:00:07;18.40;99.90
20141;DHT22;10231;47.702;9.826;2023-07-13T08:02:33;18.50;99.90
20141;DHT22;10231;47.702;9.826;2023-07-13T08:04:59;18.50;99.90
20141;DHT22;10231;47.702;9.826;2023-07-13T08:07:24;18.50;99.90
20141;DHT22;10231;47.702;9.826;2023-07-13T08:09:52;18.40;99.90
20141;DHT22;10231;47.702;9.826;2023-07-13T08:12:18;18.40;99.90
20141;DHT22;10231;47.702;9.826;2023-07-13T08:14:43;18.40;99.90
20141;DHT22;10231;47.702;9.826;2023-07-13T08:17:09;18.40;99.90
20141;DHT22;10231;47.702;9.826;2023-07-13T08:19:35;18.40;99.90
20141;DHT22;10231;47.702;9.826;2023-07-13T08:22:00;18.40;99.90
20141;DHT22;10231;47.702;9.826;2023-07-13T08:24:26;18.40;99.90
20141;DHT22;10231;47.702;9.826;2023-07-13T08:26:51;18.40;99.90
20141;DHT22;10231;47.702;9.826;2023-07-13T08:29:17;18.30;99.90
20141;DHT22;10231;47.702;9.826;2023-07-13T08:31:43;18.30;99.90
20141;DHT22;10231;47.702;9.826;2023-07-13T08:34:08;18.30;99.90
20141;DHT22;10231;47.702;9.826;2023-07-13T08:36:34;18.20;99.90
20141;DHT22;10231;47.702;9.826;2023-07-13T08:39:00;18.20;99.90
20141;DHT22;10231;47.702;9.826;2023-07-13T08:41:26;18.10;99.90
20141;DHT22;10231;47.702;9.826;2023-07-13T08:43:56;18.10;99.90
20141;DHT22;10231;47.702;9.826;2023-07-13T08:46:33;18.10;99.90
20141;DHT22;10231;47.702;9.826;2023-07-13T08:49:08;18.10;99.90
20141;DHT22;10231;47.702;9.826;2023-07-13T08:54:25;18.20;99.90
20141;DHT22;10231;47.702;9.826;2023-07-13T08:56:53;18.20;99.90
20141;DHT22;10231;47.702;9.826;2023-07-13T08:59:25;18.30;99.90
20141;DHT22;10231;47.702;9.826;2023-07-13T09:02:00;18.40;99.90
20141;DHT22;10231;47.702;9.826;2023-07-13T09:04:39;18.40;99.90
20141;DHT22;10231;47.702;9.826;2023-07-13T09:10:05;18.50;99.90
20141;DHT22;10231;47.702;9.826;2023-07-13T09:15:28;18.50;99.90
20141;DHT22;10231;47.702;9.826;2023-07-13T09:17:59;18.50;99.90
20141;DHT22;10231;47.702;9.826;2023-07-13T09:20:31;18.60;99.90
20141;DHT22;10231;47.702;9.826;2023-07-13T09:23:02;18.60;99.90
20141;DHT22;10231;47.702;9.826;2023-07-13T09:25:34;18.50;99.90
20141;DHT22;10231;47.702;9.826;2023-07-13T09:28:13;18.40;99.90
20141;DHT22;10231;47.702;9.826;2023-07-13T09:30:58;18.40;99.90
20141;DHT22;10231;47.702;9.826;2023-07-13T09:33:25;18.50;99.90
20141;DHT22;10231;47.702;9.826;2023-07-13T09:35:55;18.60;99.90
20141;DHT22;10231;47.702;9.826;2023-07-13T09:38:23;18.60;99.90
20141;DHT22;10231;47.702;9.826;2023-07-13T09:41:23;18.60;99.90
20141;DHT22;10231;47.702;9.826;2023-07-13T09:44:08;18.60;99.90
20141;DHT22;10231;47.702;9.826;2023-07-13T09:46:38;18.70;99.90
20141;DHT22;10231;47.702;9.826;2023-07-13T09:49:04;18.80;99.90
20141;DHT22;10231;47.702;9.826;2023-07-13T09:51:30;18.80;99.90
20141;DHT22;10231;47.702;9.826;2023-07-13T09:53:55;18.90;99.90
20141;DHT22;10231;47.702;9.826;2023-07-13T09:56:25;19.00;99.90
20141;DHT22;10231;47.702;9.826;2023-07-13T09:58:51;19.20;99.90
20141;DHT22;10231;47.702;9.826;2023-07-13T10:01:32;19.20;99.90
20141;DHT22;10231;47.702;9.826;2023-07-13T10:03:58;19.30;99.90
20141;DHT22;10231;47.702;9.826;2023-07-13T10:06:23;19.40;99.90
20141;DHT22;10231;47.702;9.826;2023-07-13T10:08:52;19.50;99.90
20141;DHT22;10231;47.702;9.826;2023-07-13T10:11:26;19.60;99.90
20141;DHT22;10231;47.702;9.826;2023-07-13T10:14:39;19.60;99.90
20141;DHT22;10231;47.702;9.826;2023-07-13T10:16:46;19.60;99.90
20141;DHT22;10231;47.702;9.826;2023-07-13T10:19:23;19.70;99.90
20141;DHT22;10231;47.702;9.826;2023-07-13T10:22:00;19.70;99.90
20141;DHT22;10231;47.702;9.826;2023-07-13T10:24:31;19.80;99.90
20141;DHT22;10231;47.702;9.826;2023-07-13T10:27:16;19.90;99.90
20141;DHT22;10231;47.702;9.826;2023-07-13T10:29:50;19.90;99.90
20141;DHT22;10231;47.702;9.826;2023-07-13T10:32:19;20.00;99.90
20141;DHT22;10231;47.702;9.826;2023-07-13T10:34:47;20.00;99.90
20141;DHT22;10231;47.702;9.826;2023-07-13T10:37:19;20.10;99.90
20141;DHT22;10231;47.702;9.826;2023-07-13T10:39:46;20.10;99.90
20141;DHT22;10231;47.702;9.826;2023-07-13T10:42:17;20.10;99.90
20141;DHT22;10231;47.702;9.826;2023-07-13T10:44:43;20.10;99.90
20141;DHT22;10231;47.702;9.826;2023-07-13T10:47:13;20.20;99.90
20141;DHT22;10231;47.702;9.826;2023-07-13T10:49:40;20.30;99.90
20141;DHT22;10231;47.702;9.826;2023-07-13T10:55:31;20.10;99.90
20141;DHT22;10231;47.702;9.826;2023-07-13T10:58:02;20.10;99.90
20141;DHT22;10231;47.702;9.826;2023-07-13T11:00:31;20.30;99.90
20141;DHT22;10231;47.702;9.826;2023-07-13T11:03:00;20.30;99.90
20141;DHT22;10231;47.702;9.826;2023-07-13T11:05:32;20.40;99.90
20141;DHT22;10231;47.702;9.826;2023-07-13T11:11:02;20.60;99.90
20141;DHT22;10231;47.702;9.826;2023-07-13T11:21:17;20.90;99.90
20141;DHT22;10231;47.702;9.826;2023-07-13T11:23:45;20.90;99.90
20141;DHT22;10231;47.702;9.826;2023-07-13T11:26:42;20.90;99.90
20141;DHT22;10231;47.702;9.826;2023-07-13T11:31:40;20.60;99.90
20141;DHT22;10231;47.702;9.826;2023-07-13T11:34:14;20.40;99.90
20141;DHT22;10231;47.702;9.826;2023-07-13T11:36:43;20.40;99.90
20141;DHT22;10231;47.702;9.826;2023-07-13T11:39:24;20.40;99.90
20141;DHT22;10231;47.702;9.826;2023-07-13T11:41:53;20.50;99.90
20141;DHT22;10231;47.702;9.826;2023-07-13T11:44:24;20.50;99.90
20141;DHT22;10231;47.702;9.826;2023-07-13T11:46:52;20.60;99.90
20141;DHT22;10231;47.702;9.826;2023-07-13T11:49:20;20.80;99.90
20141;DHT22;10231;47.702;9.826;2023-07-13T11:51:46;20.80;99.90
20141;DHT22;10231;47.702;9.826;2023-07-13T11:54:30;21.00;99.90
20141;DHT22;10231;47.702;9.826;2023-07-13T11:57:41;21.10;99.90
20141;DHT22;10231;47.702;9.826;2023-07-13T11:59:49;21.20;99.90
20141;DHT22;10231;47.702;9.826;2023-07-13T12:02:21;21.30;99.90
20141;DHT22;10231;47.702;9.826;2023-07-13T12:04:49;21.30;99.90
20141;DHT22;10231;47.702;9.826;2023-07-13T12:07:18;21.40;99.90
20141;DHT22;10231;47.702;9.826;2023-07-13T12:09:44;21.30;99.90
20141;DHT22;10231;47.702;9.826;2023-07-13T12:12:16;21.20;99.90
20141;DHT22;10231;47.702;9.826;2023-07-13T12:14:43;21.10;99.90
20141;DHT22;10231;47.702;9.826;2023-07-13T12:17:24;21.10;99.90
20141;DHT22;10231;47.702;9.826;2023-07-13T12:19:51;21.00;99.90
20141;DHT22;10231;47.702;9.826;2023-07-13T12:22:19;21.00;99.90
20141;DHT22;10231;47.702;9.826;2023-07-13T12:24:46;21.00;99.90
20141;DHT22;10231;47.702;9.826;2023-07-13T12:27:21;21.00;99.90
20141;DHT22;10231;47.702;9.826;2023-07-13T12:30:03;21.20;99.90
20141;DHT22;10231;47.702;9.826;2023-07-13T12:32:31;21.10;99.90
20141;DHT22;10231;47.702;9.826;2023-07-13T12:35:15;21.10;99.90
20141;DHT22;10231;47.702;9.826;2023-07-13T12:37:46;21.10;99.90
20141;DHT22;10231;47.702;9.826;2023-07-13T12:40:16;21.20;99.90
20141;DHT22;10231;47.702;9.826;2023-07-13T12:42:46;21.20;99.90
20141;DHT22;10231;47.702;9.826;2023-07-13T12:45:24;21.20;99.90
20141;DHT22;10231;47.702;9.826;2023-07-13T12:47:59;21.40;99.90
20141;DHT22;10231;47.702;9.826;2023-07-13T12:50:38;21.50;99.90
20141;DHT22;10231;47.702;9.826;2023-07-13T12:53:29;21.50;99.90
20141;DHT22;10231;47.702;9.826;2023-07-13T12:56:01;21.60;99.90
20141;DHT22;10231;47.702;9.826;2023-07-13T12:58:31;21.60;99.90
20141;DHT22;10231;47.702;9.826;2023-07-13T13:00:59;21.70;99.90
20141;DHT22;10231;47.702;9.826;2023-07-13T13:03:30;21.70;99.90
20141;DHT22;10231;47.702;9.826;2023-07-13T13:08:55;21.90;99.90
20141;DHT22;10231;47.702;9.826;2023-07-13T13:11:22;21.90;99.90
20141;DHT22;10231;47.702;9.826;2023-07-13T13:13:49;21.80;99.90
20141;DHT22;10231;47.702;9.826;2023-07-13T13:18:46;21.90;99.90
20141;DHT22;10231;47.702;9.826;2023-07-13T13:21:11;22.10;99.90
20141;DHT22;10231;47.702;9.826;2023-07-13T13:23:37;22.20;99.90
20141;DHT22;10231;47.702;9.826;2023-07-13T13:26:08;22.40;99.90
20141;DHT22;10231;47.702;9.826;2023-07-13T13:28:34;22.50;99.90
20141;DHT22;10231;47.702;9.826;2023-07-13T13:31:00;22.40;99.90
20141;DHT22;10231;47.702;9.826;2023-07-13T13:33:25;22.40;99.90
20141;DHT22;10231;47.702;9.826;2023-07-13T13:35:51;22.50;99.90
20141;DHT22;10231;47.702;9.826;2023-07-13T13:38:25;22.70;99.90
20141;DHT22;10231;47.702;9.826;2023-07-13T13:40:51;22.60;99.90
20141;DHT22;10231;47.702;9.826;2023-07-13T13:43:26;22.50;99.90
20141;DHT22;10231;47.702;9.826;2023-07-13T13:45:56;22.40;99.90
20141;DHT22;10231;47.702;9.826;2023-07-13T13:48:33;22.50;99.90
20141;DHT22;10231;47.702;9.826;2023-07-13T13:51:00;22.50;99.90
20141;DHT22;10231;47.702;9.826;2023-07-13T13:53:26;22.30;99.90
20141;DHT22;10231;47.702;9.826;2023-07-13T13:55:52;22.30;99.90
20141;DHT22;10231;47.702;9.826;2023-07-13T13:58:18;22.30;99.90
20141;DHT22;10231;47.702;9.826;2023-07-13T14:00:44;22.30;99.90
20141;DHT22;10231;47.702;9.826;2023-07-13T14:03:16;22.50;99.90
20141;DHT22;10231;47.702;9.826;2023-07-13T14:05:42;22.40;99.90
20141;DHT22;10231;47.702;9.826;2023-07-13T14:08:16;22.50;99.90
20141;DHT22;10231;47.702;9.826;2023-07-13T14:10:42;22.70;99.90
20141;DHT22;10231;47.702;9.826;2023-07-13T14:13:17;22.80;99.90
20141;DHT22;10231;47.702;9.826;2023-07-13T14:15:44;23.00;99.90
20141;DHT22;10231;47.702;9.826;2023-07-13T14:18:10;23.10;99.90
20141;DHT22;10231;47.702;9.826;2023-07-13T14:20:35;23.40;99.90
20141;DHT22;10231;47.702;9.826;2023-07-13T14:23:01;23.50;99.90
20141;DHT22;10231;47.702;9.826;2023-07-13T14:25:27;23.50;99.90
20141;DHT22;10231;47.702;9.826;2023-07-13T14:27:56;23.50;99.90
20141;DHT22;10231;47.702;9.826;2023-07-13T14:30:24;23.60;99.90
20141;DHT22;10231;47.702;9.826;2023-07-13T14:32:50;23.70;99.90
20141;DHT22;10231;47.702;9.826;2023-07-13T14:35:18;23.70;99.90
20141;DHT22;10231;47.702;9.826;2023-07-13T14:37:46;23.80;99.90
20141;DHT22;10231;47.702;9.826;2023-07-13T14:40:32;23.90;99.90
20141;DHT22;10231;47.702;9.826;2023-07-13T14:42:58;24.10;99.90
20141;DHT22;10231;47.702;9.826;2023-07-13T14:45:24;24.00;99.90
20141;DHT22;10231;47.702;9.826;2023-07-13T14:47:50;24.00;99.90
20141;DHT22;10231;47.702;9.826;2023-07-13T14:50:19;24.00;99.90
20141;DHT22;10231;47.702;9.826;2023-07-13T14:52:47;23.90;99.90
20141;DHT22;10231;47.702;9.826;2023-07-13T14:55:15;24.00;99.90
20141;DHT22;10231;47.702;9.826;2023-07-13T14:57:41;24.10;99.90
20141;DHT22;10231;47.702;9.826;2023-07-13T15:00:15;24.30;99.90
20141;DHT22;10231;47.702;9.826;2023-07-13T15:02:42;24.50;99.90
20141;DHT22;10231;47.702;9.826;2023-07-13T15:05:19;24.60;99.90
20141;DHT22;10231;47.702;9.826;2023-07-13T15:07:47;24.70;99.90
20141;DHT22;10231;47.702;9.826;2023-07-13T15:10:23;24.80;99.90
20141;DHT22;10231;47.702;9.826;2023-07-13T15:12:51;24.80;99.90
20141;DHT22;10231;47.702;9.826;2023-07-13T15:15:17;25.00;99.90
20141;DHT22;10231;47.702;9.826;2023-07-13T15:17:45;25.00;99.90
20141;DHT22;10231;47.702;9.826;2023-07-13T15:20:33;25.10;99.90
20141;DHT22;10231;47.702;9.826;2023-07-13T15:23:02;25.00;99.90
20141;DHT22;10231;47.702;9.826;2023-07-13T15:25:29;24.90;99.90
20141;DHT22;10231;47.702;9.826;2023-07-13T15:27:56;24.80;99.90
20141;DHT22;10231;47.702;9.826;2023-07-13T15:30:25;25.00;99.90
20141;DHT22;10231;47.702;9.826;2023-07-13T15:32:51;24.90;99.90
20141;DHT22;10231;47.702;9.826;2023-07-13T15:35:22;24.90;99.90
20141;DHT22;10231;47.702;9.826;2023-07-13T15:37:48;24.90;99.90
20141;DHT22;10231;47.702;9.826;2023-07-13T15:40:16;24.90;99.90
20141;DHT22;10231;47.702;9.826;2023-07-13T15:42:42;25.00;99.90
20141;DHT22;10231;47.702;9.826;2023-07-13T15:47:41;25.00;99.90
20141;DHT22;10231;47.702;9.826;2023-07-13T15:50:12;24.90;99.90
20141;DHT22;10231;47.702;9.826;2023-07-13T15:52:38;24.90;99.90
20141;DHT22;10231;47.702;9.826;2023-07-13T15:55:04;25.10;99.90
20141;DHT22;10231;47.702;9.826;2023-07-13T15:57:30;25.20;99.90
20141;DHT22;10231;47.702;9.826;2023-07-13T15:59:56;25.30;99.90
20141;DHT22;10231;47.702;9.826;2023-07-13T16:02:21;25.10;99.00
20141;DHT22;10231;47.702;9.826;2023-07-13T16:04:47;25.10;99.90
20141;DHT22;10231;47.702;9.826;2023-07-13T16:07:14;25.00;99.60
20141;DHT22;10231;47.702;9.826;2023-07-13T16:09:43;24.90;99.10
20141;DHT22;10231;47.702;9.826;2023-07-13T16:12:13;24.80;99.90